Hogansburg, New York
Current Conditions -  °F | °C
As of 11:33 PM on Saturday 22 Nov 2014 (Local Time) from KMSS Reporting Station
Haze Haze  
Wind Chill: 32°   Ceiling: 400
Heat Index: 39°   Visibility: 2.5mi
Dew Point: 39°   Wind: 12mph
Humidity: 100%   Direction: 220°SW
Pressure: 29.93"   Gusts: NA
Location:  44.97°N, 74.66°W
Report Text: KMSS 230433Z AUTO 22010KT 2 1/2SM BR OVC004 04/04 A2993 RMK AO2 T00390039
Loading
Personal Weather Stations






























Interactive Weather Map New forecast layout! Learn more

10-Day Weather Forecast

Advertisements
Track Severe Weather on mobile